Plattsmouth, NE

10:16 AM CDT on August 30, 2016 (GMT -0500)
Plattsmouth Municipal | | Change Station
Active Advisory: Flash Flood Watch Active Notice: Local Storm Report

Elev 1201 ft 40.95 °N, 95.92 °W | Updated 21 minutes ago

Mostly Cloudy
Mostly Cloudy
72 °F
Feels Like 72 °F
N
0
Wind Variable Wind from North

Today
High -- | Low -- °F
--% Chance of Precip.
Yesterday
High -- | Low -- °F
Precip. -- in
Pressure 30.22 in
Visibility 10.0 miles
Clouds Mostly Cloudy 400 ft
Mostly Cloudy 8500 ft
Mostly Cloudy 12000 ft
Dew Point 70 °F
Humidity 96%
Rainfall 0.03 in
Snow Depth Not available.
6:48 AM 7:58 PM
Waning Crescent, 3% visible
METAR KPMV 301455Z AUTO 00000KT 10SM BKN004 BKN085 BKN120 22/21 A3022 RMK AO2 60001 T02200213
Pressure 30.22 in
Visibility 10.0 miles
Clouds Mostly Cloudy 400 ft
Mostly Cloudy 8500 ft
Mostly Cloudy 12000 ft
Dew Point 70 °F
Humidity 96%
Rainfall 0.03 in
Snow Depth Not available.
6:48 AM 7:58 PM
Waning Crescent, 3% visible
METAR KPMV 301455Z AUTO 00000KT 10SM BKN004 BKN085 BKN120 22/21 A3022 RMK AO2 60001 T02200213

10-Day Weather Forecast

Almanac

Astronomy

Aug. 30, 2016 Rise Set
Actual Time
Civil Twilight
Nautical Twilight
Astronomical Twilight
Moon
Length of Visible Light
Length of Day
Tomorrow will be .
, % of the Moon is Illuminated

Today's Extremes

State Highs State Lows

Community

WunderPhotos

Upload Photos

1,935,855 photos uploaded!

WunderBlog® & News

Nearby

Air Quality

  Air Quality AQ Index Pollutant
Not available.

Snow Depth

Station Depth Elevation

Earthquake Activity

City Distance Mag. Time & Date
Minimum magnitude displayed is 2.5.

Coastal Water Temperatures

Place Temperature

Stations

Nearby Weather Stations

Station Location Temp. Windchill Dew Point Humidity Wind Precip. Elev Updated Type
                   

Watches & Warnings

Flash Flood Watch
Issued: 4:07 AM CDT Aug. 30, 2016 – National Weather Service

... Flash Flood Watch remains in effect through this afternoon...

The Flash Flood Watch continues for

* portions of southwest Iowa and Nebraska... including the
following areas... in southwest Iowa... Fremont... Mills...
Montgomery... Page and Pottawattamie. In Nebraska... Cass...
Douglas... gage... Jefferson... Johnson... Lancaster... Nemaha...
Otoe... Pawnee... Richardson... Saline... Sarpy and Washington.

* Additional heavy rainfall will be possible with additional
thunderstorm activity expected throughout most of this
morning. Flooding of low lying areas could occur... along with
ponding of water on roadways. Also... flash flooding may occur
along small streams and creeks.

Precautionary/preparedness actions...

A Flash Flood Watch means that conditions may develop that lead
to flash flooding. Flash flooding is a very dangerous situation.

You should monitor later forecasts and be prepared to take action
should flash flood warnings be issued.